createdAt,value
2018-06-25T00:01:20.820Z,22.28
2018-06-25T00:03:47.198Z,22.28
2018-06-25T00:06:13.575Z,22.26
2018-06-25T00:08:39.940Z,22.27
2018-06-25T00:11:06.303Z,22.26
2018-06-25T00:13:32.630Z,22.27
2018-06-25T00:15:58.984Z,22.28
2018-06-25T00:18:25.304Z,22.24
2018-06-25T00:20:51.663Z,22.22
2018-06-25T00:23:17.990Z,22.22
2018-06-25T00:25:44.313Z,22.21
2018-06-25T00:28:10.665Z,22.23
2018-06-25T00:30:37.104Z,22.25
2018-06-25T00:33:03.425Z,22.22
2018-06-25T00:35:29.743Z,22.18
2018-06-25T00:37:56.115Z,22.17
2018-06-25T00:40:22.437Z,22.14
2018-06-25T00:42:48.781Z,22.17
2018-06-25T00:45:15.190Z,22.14
2018-06-25T00:47:41.510Z,22.14
2018-06-25T00:50:07.820Z,22.16
2018-06-25T00:52:34.226Z,22.13
2018-06-25T00:55:00.554Z,22.07
2018-06-25T00:57:26.885Z,22.09
2018-06-25T00:59:53.236Z,22.12
2018-06-25T01:02:19.548Z,22.07
2018-06-25T01:04:45.940Z,22.01
2018-06-25T01:07:12.305Z,21.90
2018-06-25T01:09:38.635Z,21.78
2018-06-25T01:12:05.000Z,21.77
2018-06-25T01:14:31.322Z,21.68
2018-06-25T01:16:57.662Z,21.61
2018-06-25T01:19:24.089Z,21.53
2018-06-25T01:21:50.468Z,21.51
2018-06-25T01:24:16.824Z,21.45
2018-06-25T01:26:43.137Z,21.49
2018-06-25T01:29:09.504Z,21.47
2018-06-25T01:31:35.879Z,21.42
2018-06-25T01:34:02.310Z,21.37
2018-06-25T01:36:28.710Z,21.39
2018-06-25T01:38:55.111Z,21.37
2018-06-25T01:41:21.436Z,21.34
2018-06-25T01:43:47.762Z,21.34
2018-06-25T01:46:14.124Z,21.38
2018-06-25T01:48:40.460Z,21.32
2018-06-25T01:51:06.845Z,21.29
2018-06-25T01:53:33.178Z,21.29
2018-06-25T01:55:59.536Z,21.31
2018-06-25T01:58:25.863Z,21.32
2018-06-25T02:00:52.252Z,21.25
2018-06-25T02:03:18.573Z,21.30
2018-06-25T02:05:44.903Z,21.30
2018-06-25T02:08:11.271Z,21.21
2018-06-25T02:10:37.605Z,21.22
2018-06-25T02:13:03.951Z,21.18
2018-06-25T02:15:30.281Z,21.23
2018-06-25T02:17:56.624Z,21.24
2018-06-25T02:20:22.951Z,21.19
2018-06-25T02:22:49.275Z,21.22
2018-06-25T02:25:15.607Z,21.22
2018-06-25T02:27:41.971Z,21.16
2018-06-25T02:30:08.335Z,21.20
2018-06-25T02:32:34.702Z,21.16
2018-06-25T02:35:01.029Z,21.16
2018-06-25T02:37:27.360Z,21.16
2018-06-25T02:39:53.724Z,21.14
2018-06-25T02:42:20.083Z,21.11
2018-06-25T02:44:46.405Z,21.17
2018-06-25T02:47:12.771Z,21.06
2018-06-25T02:49:39.103Z,21.17
2018-06-25T02:52:05.471Z,21.09
2018-06-25T02:54:31.793Z,21.06
2018-06-25T02:56:58.124Z,21.13
2018-06-25T02:59:24.447Z,21.09
2018-06-25T03:01:50.784Z,21.09
2018-06-25T03:04:17.158Z,21.08
2018-06-25T03:06:43.485Z,21.07
2018-06-25T03:09:09.856Z,21.07
2018-06-25T03:11:36.189Z,21.05
2018-06-25T03:14:02.528Z,21.08
2018-06-25T03:16:28.863Z,21.09
2018-06-25T03:18:55.245Z,21.17
2018-06-25T03:21:21.565Z,21.20
2018-06-25T03:23:47.891Z,21.24
2018-06-25T03:26:14.252Z,21.25
2018-06-25T03:28:40.629Z,21.30
2018-06-25T03:31:06.943Z,21.33
2018-06-25T03:33:33.268Z,21.36
2018-06-25T03:35:59.659Z,21.35
2018-06-25T03:38:25.971Z,21.35
2018-06-25T03:40:52.289Z,21.37
2018-06-25T03:43:18.728Z,21.40
2018-06-25T03:45:45.058Z,21.42
2018-06-25T03:48:11.465Z,21.45
2018-06-25T03:50:37.818Z,21.49
2018-06-25T03:53:04.149Z,21.49
2018-06-25T03:55:30.520Z,21.49
2018-06-25T03:57:56.847Z,21.49
2018-06-25T04:00:23.208Z,21.52
2018-06-25T04:02:49.557Z,21.52
2018-06-25T04:05:15.918Z,21.55
2018-06-25T04:07:42.352Z,21.55
2018-06-25T04:10:08.695Z,21.57
2018-06-25T04:12:35.013Z,21.58
2018-06-25T04:15:01.338Z,21.58
2018-06-25T04:17:27.724Z,21.59
2018-06-25T04:19:54.078Z,21.61
2018-06-25T04:22:20.440Z,21.62
2018-06-25T04:24:46.771Z,21.63
2018-06-25T04:27:13.164Z,21.66
2018-06-25T04:29:39.496Z,21.65
2018-06-25T04:32:06.150Z,21.67
2018-06-25T04:34:32.524Z,21.68
2018-06-25T04:36:58.871Z,21.70
2018-06-25T04:39:25.183Z,21.72
2018-06-25T04:41:51.506Z,21.73
2018-06-25T04:44:17.866Z,21.74
2018-06-25T04:46:44.231Z,21.76
2018-06-25T04:49:10.673Z,21.78
2018-06-25T04:51:37.002Z,21.78
2018-06-25T04:54:03.323Z,21.79
2018-06-25T04:56:29.657Z,21.79
2018-06-25T04:58:56.385Z,21.81
2018-06-25T05:01:22.756Z,21.82
2018-06-25T05:03:49.076Z,21.83
2018-06-25T05:06:15.632Z,21.84
2018-06-25T05:08:41.957Z,21.84
2018-06-25T05:11:08.344Z,21.84
2018-06-25T05:13:34.868Z,21.90
2018-06-25T05:16:01.213Z,21.90
2018-06-25T05:18:27.575Z,21.91
2018-06-25T05:20:53.937Z,21.92
2018-06-25T05:23:21.579Z,21.94
2018-06-25T05:25:48.087Z,22.03
2018-06-25T05:28:14.404Z,21.99
2018-06-25T05:30:40.825Z,22.01
2018-06-25T05:33:07.202Z,22.04
2018-06-25T05:35:33.642Z,22.05
2018-06-25T05:37:59.966Z,22.04
2018-06-25T05:40:26.337Z,22.16
2018-06-25T05:42:52.666Z,22.14
2018-06-25T05:45:19.070Z,22.14
2018-06-25T05:47:45.440Z,22.18
2018-06-25T05:50:11.772Z,22.18
2018-06-25T05:52:38.083Z,22.23
2018-06-25T05:55:04.468Z,22.18
2018-06-25T05:57:30.812Z,22.31
2018-06-25T05:59:57.188Z,22.26
2018-06-25T06:02:23.543Z,22.34
2018-06-25T06:04:49.980Z,22.33
2018-06-25T06:07:16.411Z,22.39
2018-06-25T06:09:43.011Z,22.40
2018-06-25T06:12:09.598Z,22.42
2018-06-25T06:14:35.989Z,22.49
2018-06-25T06:17:02.382Z,22.49
2018-06-25T06:19:31.899Z,22.47
2018-06-25T06:21:58.273Z,22.51
2018-06-25T06:24:24.639Z,22.62
2018-06-25T06:26:51.026Z,22.60
2018-06-25T06:29:17.351Z,22.52
2018-06-25T06:31:43.728Z,22.70
2018-06-25T06:34:10.112Z,22.68
2018-06-25T06:36:36.438Z,22.67
2018-06-25T06:39:02.822Z,22.67
2018-06-25T06:41:29.263Z,22.76
2018-06-25T06:43:55.799Z,22.81
2018-06-25T06:46:22.238Z,22.79
2018-06-25T06:48:50.230Z,22.82
2018-06-25T06:51:17.475Z,22.80
2018-06-25T06:53:44.109Z,22.88
2018-06-25T06:56:10.581Z,22.88
2018-06-25T06:58:36.992Z,22.97
2018-06-25T07:01:03.650Z,23.09
2018-06-25T07:03:30.197Z,23.11
2018-06-25T07:05:56.529Z,23.08
2018-06-25T07:08:22.927Z,23.16
2018-06-25T07:10:49.479Z,23.20
2018-06-25T07:13:15.939Z,23.15
2018-06-25T07:15:42.689Z,23.16
2018-06-25T07:18:09.141Z,23.26
2018-06-25T07:20:35.624Z,23.23
2018-06-25T07:23:02.096Z,23.27
2018-06-25T07:25:28.799Z,23.25
2018-06-25T07:27:55.250Z,23.40
2018-06-25T07:30:21.607Z,23.36
2018-06-25T07:32:48.033Z,23.40
2018-06-25T07:35:14.495Z,23.41
2018-06-25T07:37:41.152Z,23.43
2018-06-25T07:40:07.549Z,23.54
2018-06-25T07:42:34.014Z,23.53
2018-06-25T07:45:00.413Z,23.49
2018-06-25T07:47:26.990Z,23.58
2018-06-25T07:49:53.717Z,23.47
2018-06-25T07:52:20.181Z,23.56
2018-06-25T07:54:46.765Z,23.56
2018-06-25T07:57:13.357Z,23.65
2018-06-25T07:59:39.844Z,23.71
2018-06-25T08:02:06.477Z,23.65
2018-06-25T08:04:33.257Z,23.66
2018-06-25T08:06:59.764Z,23.69
2018-06-25T08:09:26.319Z,23.68
2018-06-25T08:11:53.525Z,23.79
2018-06-25T08:14:20.470Z,23.75
2018-06-25T08:16:47.102Z,23.81
2018-06-25T08:19:14.187Z,23.81
2018-06-25T08:21:40.849Z,23.82
2018-06-25T08:24:07.498Z,23.86
2018-06-25T08:26:34.081Z,23.84
2018-06-25T08:29:00.637Z,23.83
2018-06-25T08:31:27.287Z,23.90
2018-06-25T08:33:53.724Z,24.00
2018-06-25T08:36:20.227Z,24.00
2018-06-25T08:38:46.965Z,23.95
2018-06-25T08:41:15.173Z,24.02
2018-06-25T08:43:42.181Z,23.91
2018-06-25T08:46:10.319Z,23.97
2018-06-25T08:48:36.862Z,23.92
2018-06-25T08:51:03.348Z,23.97
2018-06-25T08:53:30.221Z,23.89
2018-06-25T08:55:56.763Z,24.02
2018-06-25T08:58:23.412Z,23.90
2018-06-25T09:00:49.917Z,23.95
2018-06-25T09:03:16.323Z,23.96
2018-06-25T09:05:42.734Z,23.91
2018-06-25T09:08:09.152Z,24.01
2018-06-25T09:10:35.647Z,24.09
2018-06-25T09:13:02.095Z,23.94
2018-06-25T09:15:28.503Z,24.14
2018-06-25T09:17:55.230Z,24.01
2018-06-25T09:20:21.865Z,24.06
2018-06-25T09:22:49.205Z,23.98
2018-06-25T09:25:16.279Z,24.02
2018-06-25T09:27:42.775Z,24.09
2018-06-25T09:30:09.127Z,24.09
2018-06-25T09:32:35.674Z,24.06
2018-06-25T09:35:02.484Z,23.98
2018-06-25T09:37:28.972Z,24.04
2018-06-25T09:39:55.476Z,24.04
2018-06-25T09:42:22.458Z,23.99
2018-06-25T09:44:50.434Z,24.09
2018-06-25T09:47:17.880Z,24.16
2018-06-25T09:49:45.669Z,24.27
2018-06-25T09:52:12.605Z,24.13
2018-06-25T09:54:39.386Z,24.26
2018-06-25T09:57:06.991Z,24.21
2018-06-25T09:59:34.452Z,24.20
2018-06-25T10:02:01.891Z,24.33
2018-06-25T10:04:29.125Z,24.30
2018-06-25T10:06:56.009Z,24.38
2018-06-25T10:09:22.662Z,24.28
2018-06-25T10:11:49.763Z,24.34
2018-06-25T10:14:17.686Z,24.18
2018-06-25T10:16:44.973Z,24.30
2018-06-25T10:19:11.515Z,24.27
2018-06-25T10:21:38.395Z,24.31
2018-06-25T10:24:05.855Z,24.25
2018-06-25T10:26:33.083Z,24.34
2018-06-25T10:29:00.282Z,24.31
2018-06-25T10:31:27.493Z,24.43
2018-06-25T10:33:54.288Z,24.36
2018-06-25T10:36:21.132Z,24.26
2018-06-25T10:38:47.807Z,24.33
2018-06-25T10:41:15.064Z,24.35
2018-06-25T10:43:42.083Z,24.25
2018-06-25T10:46:08.815Z,24.29
2018-06-25T10:48:35.706Z,24.43
2018-06-25T10:51:03.325Z,24.32
2018-06-25T10:53:30.181Z,24.28
2018-06-25T10:55:59.088Z,24.26
2018-06-25T10:58:26.245Z,24.27
2018-06-25T11:00:52.986Z,24.31
2018-06-25T11:03:20.188Z,24.29
2018-06-25T11:05:48.348Z,24.35
2018-06-25T11:08:15.115Z,24.32
2018-06-25T11:10:41.953Z,24.32
2018-06-25T11:13:08.933Z,24.31
2018-06-25T11:15:35.862Z,24.29
2018-06-25T11:18:02.694Z,24.39
2018-06-25T11:20:29.937Z,24.39
2018-06-25T11:22:56.802Z,24.32
2018-06-25T11:25:23.754Z,24.36
2018-06-25T11:27:50.672Z,24.49
2018-06-25T11:30:17.381Z,24.58
2018-06-25T11:32:45.143Z,24.49
2018-06-25T11:35:12.161Z,24.55
2018-06-25T11:37:40.600Z,24.46
2018-06-25T11:40:08.248Z,24.45
2018-06-25T11:42:35.865Z,24.49
2018-06-25T11:47:35.623Z,24.50
2018-06-25T11:50:02.306Z,24.50
2018-06-25T11:52:29.322Z,24.60
2018-06-25T11:54:56.161Z,24.68
2018-06-25T11:57:23.252Z,24.44
2018-06-25T11:59:50.201Z,24.72
2018-06-25T12:02:17.105Z,24.64
2018-06-25T12:04:43.845Z,24.68
2018-06-25T12:07:10.637Z,24.73
2018-06-25T12:09:38.464Z,24.72
2018-06-25T12:12:06.135Z,24.57
2018-06-25T12:14:33.827Z,24.64
2018-06-25T12:17:01.256Z,24.70
2018-06-25T12:22:10.634Z,24.59
2018-06-25T12:24:37.458Z,24.61
2018-06-25T12:27:04.468Z,24.60
2018-06-25T12:29:31.559Z,24.69
2018-06-25T12:31:58.805Z,24.64
2018-06-25T12:34:26.561Z,24.59
2018-06-25T12:36:54.327Z,24.58
2018-06-25T12:39:21.541Z,24.57
2018-06-25T12:41:48.790Z,24.71
2018-06-25T12:44:15.508Z,24.56
2018-06-25T12:46:41.960Z,24.62
2018-06-25T12:49:08.474Z,24.71
2018-06-25T12:51:35.278Z,24.66
2018-06-25T12:54:01.640Z,24.55
2018-06-25T12:56:28.004Z,24.43
2018-06-25T12:58:54.463Z,24.48
2018-06-25T13:01:21.405Z,24.51
2018-06-25T13:03:49.748Z,24.48
2018-06-25T13:06:16.590Z,24.48
2018-06-25T13:08:43.153Z,24.51
2018-06-25T13:11:09.757Z,24.65
2018-06-25T13:13:36.269Z,24.57
2018-06-25T13:16:02.907Z,24.48
2018-06-25T13:18:29.361Z,24.61
2018-06-25T13:20:55.983Z,24.56
2018-06-25T13:23:22.491Z,24.51
2018-06-25T13:28:23.013Z,24.47
2018-06-25T13:30:49.643Z,24.45
2018-06-25T13:33:16.197Z,24.36
2018-06-25T13:35:43.662Z,24.58
2018-06-25T13:38:10.749Z,24.59
2018-06-25T13:43:16.123Z,24.61
2018-06-25T13:45:42.553Z,24.58
2018-06-25T13:48:10.337Z,24.55
2018-06-25T13:50:37.002Z,24.55
2018-06-25T13:53:03.673Z,24.53
2018-06-25T13:55:30.647Z,24.55
2018-06-25T13:57:57.535Z,24.53
2018-06-25T14:00:24.004Z,24.55
2018-06-25T14:02:50.407Z,24.57
2018-06-25T14:05:16.942Z,24.56
2018-06-25T14:07:43.349Z,24.76
2018-06-25T14:10:09.900Z,24.54
2018-06-25T14:12:36.483Z,24.65
2018-06-25T14:15:03.112Z,24.62
2018-06-25T14:17:29.716Z,24.63
2018-06-25T14:19:56.085Z,24.69
2018-06-25T14:22:22.419Z,24.60
2018-06-25T14:24:48.788Z,24.72
2018-06-25T14:27:15.234Z,24.75
2018-06-25T14:29:41.589Z,24.60
2018-06-25T14:32:08.151Z,24.65
2018-06-25T14:34:34.795Z,24.53
2018-06-25T14:37:01.160Z,24.59
2018-06-25T14:39:27.679Z,24.55
2018-06-25T14:41:54.093Z,24.53
2018-06-25T14:44:20.564Z,24.48
2018-06-25T14:46:46.965Z,24.32
2018-06-25T14:49:13.321Z,24.28
2018-06-25T14:51:39.664Z,24.35
2018-06-25T14:54:06.049Z,24.33
2018-06-25T14:56:32.509Z,24.47
2018-06-25T14:58:58.879Z,24.48
2018-06-25T15:01:25.240Z,24.57
2018-06-25T15:03:51.588Z,24.70
2018-06-25T15:06:17.948Z,24.65
2018-06-25T15:08:44.372Z,24.68
2018-06-25T15:11:10.765Z,24.36
2018-06-25T15:13:37.120Z,24.68
2018-06-25T15:16:03.739Z,24.46
2018-06-25T15:18:30.195Z,24.59
2018-06-25T15:20:56.567Z,24.62
2018-06-25T15:23:22.904Z,24.60
2018-06-25T15:25:49.244Z,24.44
2018-06-25T15:28:15.577Z,24.34
2018-06-25T15:30:41.894Z,24.48
2018-06-25T15:33:08.278Z,24.58
2018-06-25T15:35:34.711Z,24.26
2018-06-25T15:38:01.051Z,24.48
2018-06-25T15:40:27.441Z,24.49
2018-06-25T15:42:54.088Z,24.51
2018-06-25T15:45:22.924Z,24.34
2018-06-25T15:47:49.772Z,24.28
2018-06-25T15:50:16.115Z,24.41
2018-06-25T15:52:42.465Z,24.58
2018-06-25T15:55:08.818Z,24.34
2018-06-25T15:57:35.460Z,24.31
2018-06-25T16:00:01.920Z,24.39
2018-06-25T16:02:28.589Z,24.33
2018-06-25T16:04:55.000Z,24.29
2018-06-25T16:09:54.816Z,24.31
2018-06-25T16:12:21.933Z,24.19
2018-06-25T16:14:48.310Z,24.11
2018-06-25T16:17:14.885Z,24.24
2018-06-25T16:19:41.203Z,24.15
2018-06-25T16:22:07.531Z,24.10
2018-06-25T16:24:33.875Z,24.14
2018-06-25T16:27:00.244Z,24.16
2018-06-25T16:29:26.604Z,24.13
2018-06-25T16:31:52.970Z,24.13
2018-06-25T16:34:20.316Z,24.09
2018-06-25T16:36:46.668Z,24.09
2018-06-25T16:39:13.011Z,24.03
2018-06-25T16:41:39.395Z,23.97
2018-06-25T16:44:05.757Z,23.91
2018-06-25T16:46:32.139Z,23.96
2018-06-25T16:48:58.460Z,24.00
2018-06-25T16:51:24.816Z,23.99
2018-06-25T16:53:51.142Z,23.88
2018-06-25T16:56:17.460Z,23.90
2018-06-25T16:58:43.816Z,23.94
2018-06-25T17:01:10.147Z,23.94
2018-06-25T17:03:36.473Z,23.79
2018-06-25T17:06:02.812Z,23.76
2018-06-25T17:08:29.268Z,23.82
2018-06-25T17:10:55.716Z,23.77
2018-06-25T17:13:22.061Z,23.81
2018-06-25T17:15:48.627Z,23.82
2018-06-25T17:18:15.038Z,23.82
2018-06-25T17:20:42.422Z,23.85
2018-06-25T17:23:08.865Z,23.83
2018-06-25T17:25:35.981Z,23.83
2018-06-25T17:28:02.370Z,23.85
2018-06-25T17:30:28.812Z,23.89
2018-06-25T17:32:55.223Z,23.91
2018-06-25T17:35:21.595Z,23.92
2018-06-25T17:37:48.024Z,23.89
2018-06-25T17:40:14.436Z,23.86
2018-06-25T17:42:40.811Z,23.90
2018-06-25T17:45:07.213Z,23.88
2018-06-25T17:47:33.595Z,23.86
2018-06-25T17:49:59.926Z,23.89
2018-06-25T17:52:27.404Z,23.86
2018-06-25T17:54:53.770Z,23.87
2018-06-25T17:57:20.105Z,23.83
2018-06-25T17:59:46.498Z,23.88
2018-06-25T18:02:12.885Z,23.86
2018-06-25T18:04:39.256Z,23.89
2018-06-25T18:07:05.752Z,23.91
2018-06-25T18:09:32.141Z,23.85
2018-06-25T18:11:58.612Z,23.97
2018-06-25T18:14:25.457Z,24.11
2018-06-25T18:16:52.090Z,23.91
2018-06-25T18:19:18.459Z,24.09
2018-06-25T18:21:44.820Z,24.09
2018-06-25T18:24:11.188Z,24.14
2018-06-25T18:26:37.568Z,24.13
2018-06-25T18:29:03.928Z,24.10
2018-06-25T18:31:30.391Z,24.20
2018-06-25T18:33:56.828Z,24.20
2018-06-25T18:36:23.159Z,23.84
2018-06-25T18:38:49.535Z,24.12
2018-06-25T18:41:15.854Z,24.18
2018-06-25T18:43:42.341Z,24.20
2018-06-25T18:46:08.696Z,24.14
2018-06-25T18:48:35.007Z,24.20
2018-06-25T18:51:01.409Z,24.13
2018-06-25T18:53:27.780Z,24.03
2018-06-25T18:55:54.151Z,24.20
2018-06-25T18:58:20.514Z,24.21
2018-06-25T19:00:46.881Z,24.23
2018-06-25T19:03:13.192Z,24.16
2018-06-25T19:05:39.572Z,24.15
2018-06-25T19:08:06.030Z,24.15
2018-06-25T19:10:32.414Z,24.17
2018-06-25T19:12:58.813Z,24.18
2018-06-25T19:15:25.224Z,24.05
2018-06-25T19:17:51.593Z,24.05
2018-06-25T19:20:17.973Z,24.08
2018-06-25T19:22:44.342Z,23.99
2018-06-25T19:25:10.704Z,24.08
2018-06-25T19:27:37.104Z,24.09
2018-06-25T19:30:03.436Z,24.13
2018-06-25T19:32:29.875Z,24.14
2018-06-25T19:34:56.240Z,24.15
2018-06-25T19:37:22.680Z,24.09
2018-06-25T19:39:49.039Z,23.96
2018-06-25T19:42:15.424Z,24.12
2018-06-25T19:44:41.875Z,24.05
2018-06-25T19:47:08.231Z,23.99
2018-06-25T19:49:34.601Z,23.90
2018-06-25T19:52:01.041Z,24.02
2018-06-25T19:54:27.400Z,23.79
2018-06-25T19:56:53.725Z,23.88
2018-06-25T19:59:20.063Z,23.91
2018-06-25T20:01:46.386Z,23.91
2018-06-25T20:04:12.982Z,24.00
2018-06-25T20:06:39.589Z,24.05
2018-06-25T20:09:06.088Z,23.98
2018-06-25T20:11:32.570Z,24.02
2018-06-25T20:13:59.068Z,23.95
2018-06-25T20:16:25.576Z,24.00
2018-06-25T20:18:52.017Z,23.98
2018-06-25T20:21:18.427Z,23.94
2018-06-25T20:23:44.891Z,23.86
2018-06-25T20:26:11.259Z,23.86
2018-06-25T20:28:37.636Z,23.84
2018-06-25T20:31:04.092Z,23.86
2018-06-25T20:33:30.463Z,23.82
2018-06-25T20:35:56.883Z,23.79
2018-06-25T20:38:24.234Z,23.76
2018-06-25T20:40:50.590Z,23.74
2018-06-25T20:43:16.908Z,23.72
2018-06-25T20:45:43.283Z,23.70
2018-06-25T20:48:09.895Z,23.67
2018-06-25T20:50:36.235Z,23.69
2018-06-25T20:53:02.859Z,23.65
2018-06-25T20:55:29.186Z,23.67
2018-06-25T20:57:55.695Z,23.66
2018-06-25T21:00:22.013Z,23.60
2018-06-25T21:02:48.341Z,23.59
2018-06-25T21:05:14.696Z,23.56
2018-06-25T21:07:41.084Z,23.53
2018-06-25T21:10:07.428Z,23.56
2018-06-25T21:12:33.861Z,23.55
2018-06-25T21:15:00.252Z,23.52
2018-06-25T21:17:26.898Z,23.47
2018-06-25T21:19:53.266Z,23.46
2018-06-25T21:22:19.647Z,23.45
2018-06-25T21:24:45.997Z,23.42
2018-06-25T21:27:12.328Z,23.41
2018-06-25T21:29:38.684Z,23.43
2018-06-25T21:32:05.006Z,23.41
2018-06-25T21:34:31.349Z,23.37
2018-06-25T21:36:57.718Z,23.37
2018-06-25T21:39:24.048Z,23.36
2018-06-25T21:41:50.488Z,23.34
2018-06-25T21:44:16.800Z,23.35
2018-06-25T21:46:43.166Z,23.31
2018-06-25T21:49:09.580Z,23.30
2018-06-25T21:51:36.015Z,23.30
2018-06-25T21:54:02.343Z,23.30
2018-06-25T21:56:28.782Z,23.29
2018-06-25T21:58:55.156Z,23.26
2018-06-25T22:01:21.580Z,23.25
2018-06-25T22:03:48.017Z,23.25
2018-06-25T22:06:14.359Z,23.23
2018-06-25T22:08:40.680Z,23.23
2018-06-25T22:11:07.033Z,23.23
2018-06-25T22:13:33.435Z,23.21
2018-06-25T22:15:59.935Z,23.20
2018-06-25T22:18:26.269Z,23.20
2018-06-25T22:20:52.646Z,23.20
2018-06-25T22:23:18.972Z,23.17
2018-06-25T22:25:45.319Z,23.16
2018-06-25T22:28:11.623Z,23.15
2018-06-25T22:30:37.988Z,23.15
2018-06-25T22:33:04.340Z,23.14
2018-06-25T22:35:30.683Z,23.16
2018-06-25T22:37:57.044Z,23.14
2018-06-25T22:40:23.391Z,23.12
2018-06-25T22:42:49.774Z,23.11
2018-06-25T22:45:16.113Z,23.10
2018-06-25T22:47:42.494Z,23.10
2018-06-25T22:50:09.690Z,23.09
2018-06-25T22:52:36.028Z,23.09
2018-06-25T22:55:02.387Z,23.07
2018-06-25T22:57:28.740Z,23.05
2018-06-25T22:59:55.056Z,23.10
2018-06-25T23:02:21.396Z,23.02
2018-06-25T23:04:47.813Z,23.07
2018-06-25T23:07:14.205Z,23.02
2018-06-25T23:09:40.568Z,23.01
2018-06-25T23:12:06.927Z,23.00
2018-06-25T23:14:33.432Z,23.02
2018-06-25T23:16:59.785Z,22.98
2018-06-25T23:19:26.182Z,22.98
2018-06-25T23:21:52.560Z,22.95
2018-06-25T23:24:18.931Z,22.96
2018-06-25T23:26:45.268Z,22.95
2018-06-25T23:29:11.629Z,22.97
2018-06-25T23:31:38.053Z,22.96
2018-06-25T23:34:04.466Z,22.95
2018-06-25T23:36:30.828Z,22.92
2018-06-25T23:38:57.141Z,22.93
2018-06-25T23:41:23.495Z,22.94
2018-06-25T23:43:49.936Z,22.91
2018-06-25T23:46:16.285Z,22.91
2018-06-25T23:48:42.643Z,22.91
2018-06-25T23:51:08.960Z,22.87
2018-06-25T23:53:35.339Z,22.93
2018-06-25T23:56:01.656Z,22.85
2018-06-25T23:58:28.021Z,22.85
